SWA4469 KLAX-KSAN
Flight info
| Callsign | SWA4469 |
|---|---|
| Flight time | 0h 28m |
| Altitude | 13000 |
| Route | LAXX1 MZB |
| Aircraft | B738/M-SDE2E3FGHIRWXY/LB1 |
Departure
| Time | 2026-04-23 02:39 |
|---|---|
| Airport | Los Angeles International Airport (KLAX) |
Arrival
| Time | 2026-04-23 03:08 |
|---|---|
| Airport | San Diego International Airport (KSAN) |
| Time | Latitude | Longitude | Altitude | Speed | Heading |
|---|---|---|---|---|---|
| 2026-04-23 02:21 | 33.94723 | -118.40190 | 92 ft | 0 kts | 84° |
| 2026-04-23 02:29 | 33.94722 | -118.40195 | 92 ft | 2 kts | 84° |
| 2026-04-23 02:29 | 33.94721 | -118.40210 | 92 ft | 2 kts | 82° |
| 2026-04-23 02:29 | 33.94718 | -118.40225 | 91 ft | 2 kts | 64° |
| 2026-04-23 02:29 | 33.94711 | -118.40238 | 92 ft | 2 kts | 41° |
| 2026-04-23 02:30 | 33.94700 | -118.40247 | 90 ft | 2 kts | 17° |
| 2026-04-23 02:30 | 33.94687 | -118.40250 | 94 ft | 2 kts | 1° |
| 2026-04-23 02:30 | 33.94677 | -118.40249 | 91 ft | 0 kts | 351° |
| 2026-04-23 02:31 | 33.94683 | -118.40251 | 91 ft | 2 kts | 351° |
| 2026-04-23 02:31 | 33.94710 | -118.40255 | 92 ft | 2 kts | 353° |
| 2026-04-23 02:34 | 33.94711 | -118.40255 | 92 ft | 1 kts | 353° |
| 2026-04-23 02:34 | 33.94729 | -118.40258 | 93 ft | 4 kts | 352° |
| 2026-04-23 02:34 | 33.94772 | -118.40266 | 92 ft | 9 kts | 352° |
| 2026-04-23 02:34 | 33.94848 | -118.40289 | 93 ft | 13 kts | 356° |
| 2026-04-23 02:35 | 33.94904 | -118.40207 | 95 ft | 16 kts | 81° |
| 2026-04-23 02:35 | 33.94920 | -118.40050 | 92 ft | 17 kts | 83° |
| 2026-04-23 02:35 | 33.94933 | -118.39960 | 92 ft | 10 kts | 70° |
| 2026-04-23 02:35 | 33.94944 | -118.39937 | 92 ft | 0 kts | 50° |
| 2026-04-23 02:37 | 33.94945 | -118.39936 | 92 ft | 1 kts | 49° |
| 2026-04-23 02:37 | 33.94958 | -118.39923 | 92 ft | 5 kts | 33° |
| 2026-04-23 02:37 | 33.95005 | -118.39914 | 93 ft | 9 kts | 354° |
| 2026-04-23 02:38 | 33.95038 | -118.39975 | 94 ft | 10 kts | 267° |
| 2026-04-23 02:38 | 33.95036 | -118.39992 | 94 ft | 0 kts | 263° |
| 2026-04-23 02:39 | 33.95006 | -118.40289 | 97 ft | 69 kts | 263° |
| 2026-04-23 02:39 | 33.94924 | -118.41107 | 97 ft | 125 kts | 263° |
| 2026-04-23 02:39 | 33.94792 | -118.42283 | 332 ft | 151 kts | 262° |
| 2026-04-23 02:39 | 33.94625 | -118.43595 | 817 ft | 165 kts | 259° |
| 2026-04-23 02:40 | 33.94052 | -118.44910 | 1098 ft | 194 kts | 230° |
| 2026-04-23 02:40 | 33.93097 | -118.46193 | 1317 ft | 215 kts | 231° |
| 2026-04-23 02:40 | 33.92090 | -118.47596 | 1527 ft | 229 kts | 232° |
| 2026-04-23 02:40 | 33.91014 | -118.49079 | 1865 ft | 237 kts | 231° |
| 2026-04-23 02:41 | 33.89925 | -118.50574 | 2324 ft | 242 kts | 231° |
| 2026-04-23 02:41 | 33.88804 | -118.52107 | 2766 ft | 243 kts | 231° |
| 2026-04-23 02:41 | 33.87683 | -118.53651 | 3232 ft | 249 kts | 232° |
| 2026-04-23 02:41 | 33.86532 | -118.55258 | 3657 ft | 255 kts | 232° |
| 2026-04-23 02:42 | 33.85377 | -118.56894 | 4335 ft | 257 kts | 231° |
| 2026-04-23 02:42 | 33.84019 | -118.58285 | 5070 ft | 261 kts | 207° |
| 2026-04-23 02:42 | 33.82243 | -118.58801 | 5758 ft | 267 kts | 184° |
| 2026-04-23 02:42 | 33.80366 | -118.58845 | 6459 ft | 271 kts | 182° |
| 2026-04-23 02:43 | 33.78451 | -118.58833 | 7086 ft | 277 kts | 182° |
| 2026-04-23 02:43 | 33.76528 | -118.58787 | 7856 ft | 277 kts | 182° |
| 2026-04-23 02:43 | 33.74595 | -118.58717 | 8411 ft | 288 kts | 182° |
| 2026-04-23 02:43 | 33.72560 | -118.58619 | 9041 ft | 295 kts | 182° |
| 2026-04-23 02:44 | 33.70494 | -118.58495 | 9773 ft | 300 kts | 182° |
| 2026-04-23 02:44 | 33.68388 | -118.58343 | 10385 ft | 309 kts | 182° |
| 2026-04-23 02:44 | 33.66158 | -118.57996 | 10532 ft | 341 kts | 166° |
| 2026-04-23 02:44 | 33.64046 | -118.56472 | 10703 ft | 373 kts | 137° |
| 2026-04-23 02:45 | 33.62507 | -118.53853 | 10920 ft | 395 kts | 119° |
| 2026-04-23 02:45 | 33.61230 | -118.50882 | 11373 ft | 404 kts | 117° |
| 2026-04-23 02:45 | 33.59949 | -118.47857 | 11946 ft | 410 kts | 118° |
| 2026-04-23 02:45 | 33.58618 | -118.44806 | 12582 ft | 414 kts | 119° |
| 2026-04-23 02:46 | 33.57237 | -118.41754 | 12975 ft | 416 kts | 120° |
| 2026-04-23 02:46 | 33.55797 | -118.38672 | 13021 ft | 433 kts | 121° |
| 2026-04-23 02:46 | 33.54278 | -118.35491 | 13030 ft | 444 kts | 121° |
| 2026-04-23 02:46 | 33.52718 | -118.32266 | 13011 ft | 448 kts | 121° |
| 2026-04-23 02:47 | 33.51149 | -118.29044 | 13003 ft | 447 kts | 121° |
| 2026-04-23 02:47 | 33.49577 | -118.25823 | 13007 ft | 447 kts | 121° |
| 2026-04-23 02:47 | 33.48008 | -118.22612 | 13009 ft | 447 kts | 121° |
| 2026-04-23 02:47 | 33.46439 | -118.19406 | 13010 ft | 447 kts | 121° |
| 2026-04-23 02:48 | 33.44867 | -118.16192 | 13012 ft | 447 kts | 121° |
| 2026-04-23 02:48 | 33.43296 | -118.12982 | 13011 ft | 447 kts | 121° |
| 2026-04-23 02:48 | 33.41739 | -118.09802 | 13006 ft | 448 kts | 121° |
| 2026-04-23 02:48 | 33.40164 | -118.06588 | 13014 ft | 448 kts | 121° |
| 2026-04-23 02:49 | 33.38587 | -118.03373 | 12995 ft | 447 kts | 121° |
| 2026-04-23 02:49 | 33.37020 | -118.00171 | 12990 ft | 442 kts | 121° |
| 2026-04-23 02:49 | 33.35468 | -117.96963 | 13005 ft | 447 kts | 121° |
| 2026-04-23 02:49 | 33.33908 | -117.93745 | 13003 ft | 447 kts | 121° |
| 2026-04-23 02:50 | 33.32341 | -117.90532 | 13007 ft | 447 kts | 121° |
| 2026-04-23 02:50 | 33.30770 | -117.87330 | 13010 ft | 446 kts | 121° |
| 2026-04-23 02:50 | 33.29195 | -117.84135 | 13013 ft | 446 kts | 121° |
| 2026-04-23 02:50 | 33.27618 | -117.80946 | 13005 ft | 446 kts | 121° |
| 2026-04-23 02:51 | 33.26571 | -117.78832 | 13003 ft | 446 kts | 121° |
| 2026-04-23 02:51 | 33.24990 | -117.75645 | 13012 ft | 446 kts | 121° |
| 2026-04-23 02:51 | 33.23406 | -117.72452 | 13009 ft | 446 kts | 121° |
| 2026-04-23 02:51 | 33.21822 | -117.69264 | 12996 ft | 446 kts | 121° |
| 2026-04-23 02:52 | 33.20238 | -117.66077 | 12999 ft | 445 kts | 121° |
| 2026-04-23 02:52 | 33.18658 | -117.62900 | 13005 ft | 445 kts | 121° |
| 2026-04-23 02:52 | 33.17076 | -117.59721 | 13009 ft | 445 kts | 121° |
| 2026-04-23 02:52 | 33.15491 | -117.56540 | 13003 ft | 444 kts | 121° |
| 2026-04-23 02:53 | 33.13932 | -117.53413 | 12706 ft | 434 kts | 121° |
| 2026-04-23 02:53 | 33.12393 | -117.50326 | 12116 ft | 431 kts | 122° |
| 2026-04-23 02:53 | 33.10866 | -117.47268 | 11621 ft | 424 kts | 122° |
| 2026-04-23 02:53 | 33.09408 | -117.44349 | 11536 ft | 406 kts | 122° |
| 2026-04-23 02:54 | 33.07988 | -117.41509 | 11438 ft | 391 kts | 122° |
| 2026-04-23 02:54 | 33.06620 | -117.38776 | 11346 ft | 377 kts | 122° |
| 2026-04-23 02:54 | 33.05303 | -117.36147 | 11244 ft | 360 kts | 122° |
| 2026-04-23 02:54 | 33.03819 | -117.33863 | 11108 ft | 339 kts | 143° |
| 2026-04-23 02:55 | 33.01902 | -117.32408 | 11023 ft | 315 kts | 160° |
| 2026-04-23 02:55 | 32.99916 | -117.31491 | 10811 ft | 301 kts | 165° |
| 2026-04-23 02:55 | 32.97944 | -117.30682 | 10410 ft | 298 kts | 166° |
| 2026-04-23 02:55 | 32.95981 | -117.29892 | 9997 ft | 296 kts | 166° |
| 2026-04-23 02:56 | 32.94067 | -117.29116 | 9567 ft | 293 kts | 165° |
| 2026-04-23 02:56 | 32.92147 | -117.28327 | 9112 ft | 291 kts | 165° |
| 2026-04-23 02:56 | 32.90242 | -117.27538 | 8686 ft | 289 kts | 164° |
| 2026-04-23 02:56 | 32.88356 | -117.26752 | 8267 ft | 286 kts | 164° |
| 2026-04-23 02:57 | 32.86486 | -117.25969 | 7837 ft | 284 kts | 162° |
| 2026-04-23 02:57 | 32.84785 | -117.24769 | 7384 ft | 287 kts | 136° |
| 2026-04-23 02:57 | 32.83696 | -117.22806 | 6931 ft | 286 kts | 109° |
| 2026-04-23 02:57 | 32.83170 | -117.20544 | 6615 ft | 280 kts | 102° |
| 2026-04-23 02:58 | 32.82750 | -117.18340 | 6501 ft | 265 kts | 101° |
| 2026-04-23 02:58 | 32.82360 | -117.16220 | 6323 ft | 265 kts | 101° |
| 2026-04-23 02:58 | 32.81972 | -117.14064 | 6108 ft | 273 kts | 101° |
| 2026-04-23 02:58 | 32.81571 | -117.11810 | 6038 ft | 276 kts | 101° |
| 2026-04-23 02:59 | 32.81175 | -117.09583 | 5995 ft | 280 kts | 101° |
| 2026-04-23 02:59 | 32.80787 | -117.07352 | 5979 ft | 270 kts | 101° |
| 2026-04-23 02:59 | 32.80414 | -117.05210 | 5973 ft | 259 kts | 101° |
| 2026-04-23 02:59 | 32.80053 | -117.03167 | 5970 ft | 246 kts | 101° |
| 2026-04-23 03:00 | 32.79702 | -117.01209 | 5970 ft | 239 kts | 101° |
| 2026-04-23 03:00 | 32.79354 | -116.99278 | 5886 ft | 241 kts | 101° |
| 2026-04-23 03:00 | 32.79008 | -116.97338 | 5669 ft | 240 kts | 101° |
| 2026-04-23 03:00 | 32.78662 | -116.95391 | 5415 ft | 240 kts | 101° |
| 2026-04-23 03:01 | 32.78323 | -116.93465 | 5308 ft | 238 kts | 101° |
| 2026-04-23 03:01 | 32.77986 | -116.91541 | 5271 ft | 238 kts | 101° |
| 2026-04-23 03:01 | 32.77458 | -116.89706 | 5200 ft | 239 kts | 124° |
| 2026-04-23 03:01 | 32.76233 | -116.88399 | 5118 ft | 240 kts | 157° |
| 2026-04-23 03:02 | 32.74624 | -116.88036 | 5042 ft | 236 kts | 186° |
| 2026-04-23 03:02 | 32.73000 | -116.88238 | 5028 ft | 233 kts | 191° |
| 2026-04-23 03:02 | 32.71402 | -116.88486 | 4993 ft | 230 kts | 190° |
| 2026-04-23 03:02 | 32.69827 | -116.88789 | 4840 ft | 231 kts | 200° |
| 2026-04-23 03:03 | 32.68499 | -116.89778 | 4622 ft | 225 kts | 234° |
| 2026-04-23 03:03 | 32.67782 | -116.91383 | 4453 ft | 219 kts | 251° |
| 2026-04-23 03:03 | 32.67274 | -116.93078 | 4214 ft | 217 kts | 263° |
| 2026-04-23 03:03 | 32.67479 | -116.94779 | 4004 ft | 206 kts | 294° |
| 2026-04-23 03:04 | 32.67936 | -116.96396 | 3856 ft | 209 kts | 285° |
| 2026-04-23 03:04 | 32.68280 | -116.98077 | 3839 ft | 210 kts | 288° |
| 2026-04-23 03:04 | 32.68692 | -116.99752 | 3803 ft | 212 kts | 287° |
| 2026-04-23 03:04 | 32.69111 | -117.01444 | 3637 ft | 216 kts | 287° |
| 2026-04-23 03:05 | 32.69531 | -117.03164 | 3372 ft | 217 kts | 287° |
| 2026-04-23 03:05 | 32.69940 | -117.04845 | 3148 ft | 210 kts | 287° |
| 2026-04-23 03:05 | 32.70330 | -117.06462 | 2897 ft | 198 kts | 287° |
| 2026-04-23 03:05 | 32.70697 | -117.07994 | 2561 ft | 190 kts | 288° |
| 2026-04-23 03:06 | 32.71061 | -117.09502 | 2149 ft | 188 kts | 287° |
| 2026-04-23 03:06 | 32.71422 | -117.10994 | 1732 ft | 187 kts | 287° |
| 2026-04-23 03:06 | 32.71784 | -117.12456 | 1346 ft | 182 kts | 288° |
| 2026-04-23 03:06 | 32.72130 | -117.13856 | 966 ft | 169 kts | 287° |
| 2026-04-23 03:07 | 32.72440 | -117.15138 | 642 ft | 153 kts | 287° |
| 2026-04-23 03:07 | 32.72720 | -117.16298 | 378 ft | 141 kts | 285° |
| 2026-04-23 03:07 | 32.72981 | -117.17383 | 123 ft | 132 kts | 285° |
| 2026-04-23 03:07 | 32.73213 | -117.18359 | 22 ft | 108 kts | 285° |
| 2026-04-23 03:08 | 32.73364 | -117.18969 | 22 ft | 48 kts | 287° |
| 2026-04-23 03:08 | 32.73444 | -117.19305 | 21 ft | 23 kts | 278° |
| 2026-04-23 03:08 | 32.73439 | -117.19419 | 22 ft | 9 kts | 261° |
| 2026-04-23 03:08 | 32.73423 | -117.19494 | 22 ft | 10 kts | 251° |
| 2026-04-23 03:09 | 32.73405 | -117.19590 | 22 ft | 14 kts | 271° |
| 2026-04-23 03:09 | 32.73384 | -117.19698 | 22 ft | 7 kts | 217° |
| 2026-04-23 03:09 | 32.73344 | -117.19708 | 22 ft | 7 kts | 157° |
| 2026-04-23 03:09 | 32.73314 | -117.19681 | 22 ft | 0 kts | 141° |